sensor_id;sensor_type;location;lat;lon;timestamp;temperature;humidity
15257;DHT22;7731;50.720;6.912;2022-09-11T00:00:33;16.30;99.90
15257;DHT22;7731;50.720;6.912;2022-09-11T00:03:21;16.20;99.90
15257;DHT22;7731;50.720;6.912;2022-09-11T00:05:54;16.20;99.90
15257;DHT22;7731;50.720;6.912;2022-09-11T00:08:24;16.10;99.90
15257;DHT22;7731;50.720;6.912;2022-09-11T00:11:04;16.10;99.90
15257;DHT22;7731;50.720;6.912;2022-09-11T00:13:39;16.10;99.90
15257;DHT22;7731;50.720;6.912;2022-09-11T00:16:18;16.10;99.90
15257;DHT22;7731;50.720;6.912;2022-09-11T00:18:54;16.10;99.90
15257;DHT22;7731;50.720;6.912;2022-09-11T00:21:31;16.10;99.90
15257;DHT22;7731;50.720;6.912;2022-09-11T00:24:03;16.10;99.90
15257;DHT22;7731;50.720;6.912;2022-09-11T00:26:36;16.10;99.90
15257;DHT22;7731;50.720;6.912;2022-09-11T00:29:07;16.10;99.90
15257;DHT22;7731;50.720;6.912;2022-09-11T00:31:37;16.10;99.90
15257;DHT22;7731;50.720;6.912;2022-09-11T00:34:10;16.00;99.90
15257;DHT22;7731;50.720;6.912;2022-09-11T00:36:44;16.00;99.90
15257;DHT22;7731;50.720;6.912;2022-09-11T00:39:17;15.90;99.90
15257;DHT22;7731;50.720;6.912;2022-09-11T00:41:50;15.90;99.90
15257;DHT22;7731;50.720;6.912;2022-09-11T00:47:49;15.80;99.90
15257;DHT22;7731;50.720;6.912;2022-09-11T00:50:28;15.70;99.90
15257;DHT22;7731;50.720;6.912;2022-09-11T00:53:06;15.70;99.90
15257;DHT22;7731;50.720;6.912;2022-09-11T00:55:41;15.70;99.90
15257;DHT22;7731;50.720;6.912;2022-09-11T00:58:19;15.70;99.90
15257;DHT22;7731;50.720;6.912;2022-09-11T01:00:54;15.70;99.90
15257;DHT22;7731;50.720;6.912;2022-09-11T01:03:26;15.80;99.90
15257;DHT22;7731;50.720;6.912;2022-09-11T01:06:01;15.80;99.90
15257;DHT22;7731;50.720;6.912;2022-09-11T01:08:33;15.90;99.90
15257;DHT22;7731;50.720;6.912;2022-09-11T01:11:20;15.90;99.90
15257;DHT22;7731;50.720;6.912;2022-09-11T01:14:05;15.90;99.90
15257;DHT22;7731;50.720;6.912;2022-09-11T01:16:51;16.00;99.90
15257;DHT22;7731;50.720;6.912;2022-09-11T01:19:37;16.00;99.90
15257;DHT22;7731;50.720;6.912;2022-09-11T01:22:42;16.10;99.90
15257;DHT22;7731;50.720;6.912;2022-09-11T01:25:25;16.10;99.90
15257;DHT22;7731;50.720;6.912;2022-09-11T01:28:12;16.10;99.90
15257;DHT22;7731;50.720;6.912;2022-09-11T01:30:52;16.20;99.90
15257;DHT22;7731;50.720;6.912;2022-09-11T01:33:31;16.20;99.90
15257;DHT22;7731;50.720;6.912;2022-09-11T01:36:10;16.10;99.90
15257;DHT22;7731;50.720;6.912;2022-09-11T01:38:49;16.10;99.90
15257;DHT22;7731;50.720;6.912;2022-09-11T01:41:27;16.10;99.90
15257;DHT22;7731;50.720;6.912;2022-09-11T01:44:05;16.20;99.90
15257;DHT22;7731;50.720;6.912;2022-09-11T01:46:41;16.20;99.90
15257;DHT22;7731;50.720;6.912;2022-09-11T01:49:17;16.30;99.90
15257;DHT22;7731;50.720;6.912;2022-09-11T01:52:00;16.30;99.90
15257;DHT22;7731;50.720;6.912;2022-09-11T01:54:40;16.30;99.90
15257;DHT22;7731;50.720;6.912;2022-09-11T01:57:18;16.30;99.90
15257;DHT22;7731;50.720;6.912;2022-09-11T02:00:07;16.30;99.90
15257;DHT22;7731;50.720;6.912;2022-09-11T02:02:48;16.40;99.90
15257;DHT22;7731;50.720;6.912;2022-09-11T02:05:24;16.30;99.90
15257;DHT22;7731;50.720;6.912;2022-09-11T02:08:00;16.30;99.90
15257;DHT22;7731;50.720;6.912;2022-09-11T02:10:43;16.30;99.90
15257;DHT22;7731;50.720;6.912;2022-09-11T02:13:22;16.40;99.90
15257;DHT22;7731;50.720;6.912;2022-09-11T02:16:06;16.40;99.90
15257;DHT22;7731;50.720;6.912;2022-09-11T02:18:50;16.30;99.90
15257;DHT22;7731;50.720;6.912;2022-09-11T02:21:26;16.30;99.90
15257;DHT22;7731;50.720;6.912;2022-09-11T02:23:58;16.30;99.90
15257;DHT22;7731;50.720;6.912;2022-09-11T02:26:32;16.20;99.90
15257;DHT22;7731;50.720;6.912;2022-09-11T02:29:10;16.30;99.90
15257;DHT22;7731;50.720;6.912;2022-09-11T02:31:44;16.30;99.90
15257;DHT22;7731;50.720;6.912;2022-09-11T02:34:21;16.30;99.90
15257;DHT22;7731;50.720;6.912;2022-09-11T02:37:13;16.30;99.90
15257;DHT22;7731;50.720;6.912;2022-09-11T02:40:04;16.40;99.90
15257;DHT22;7731;50.720;6.912;2022-09-11T02:43:05;16.40;99.90
15257;DHT22;7731;50.720;6.912;2022-09-11T02:45:51;16.40;99.90
15257;DHT22;7731;50.720;6.912;2022-09-11T02:48:51;16.40;99.90
15257;DHT22;7731;50.720;6.912;2022-09-11T02:51:36;16.40;99.90
15257;DHT22;7731;50.720;6.912;2022-09-11T02:54:23;16.40;99.90
15257;DHT22;7731;50.720;6.912;2022-09-11T02:57:08;16.40;99.90
15257;DHT22;7731;50.720;6.912;2022-09-11T02:59:50;16.40;99.90
15257;DHT22;7731;50.720;6.912;2022-09-11T03:02:26;16.40;99.90
15257;DHT22;7731;50.720;6.912;2022-09-11T03:05:12;16.50;99.90
15257;DHT22;7731;50.720;6.912;2022-09-11T03:07:45;16.50;99.90
15257;DHT22;7731;50.720;6.912;2022-09-11T03:10:15;16.50;99.90
15257;DHT22;7731;50.720;6.912;2022-09-11T03:12:45;16.50;99.90
15257;DHT22;7731;50.720;6.912;2022-09-11T03:15:16;16.50;99.90
15257;DHT22;7731;50.720;6.912;2022-09-11T03:17:49;16.50;99.90
15257;DHT22;7731;50.720;6.912;2022-09-11T03:20:24;16.60;99.90
15257;DHT22;7731;50.720;6.912;2022-09-11T03:22:54;16.60;99.90
15257;DHT22;7731;50.720;6.912;2022-09-11T03:25:24;16.60;99.90
15257;DHT22;7731;50.720;6.912;2022-09-11T03:27:55;16.60;99.90
15257;DHT22;7731;50.720;6.912;2022-09-11T03:30:29;16.50;99.90
15257;DHT22;7731;50.720;6.912;2022-09-11T03:32:59;16.40;99.90
15257;DHT22;7731;50.720;6.912;2022-09-11T03:35:35;16.50;99.90
15257;DHT22;7731;50.720;6.912;2022-09-11T03:38:07;16.50;99.90
15257;DHT22;7731;50.720;6.912;2022-09-11T03:40:38;16.40;99.90
15257;DHT22;7731;50.720;6.912;2022-09-11T03:43:13;16.40;99.90
15257;DHT22;7731;50.720;6.912;2022-09-11T03:45:44;16.50;99.90
15257;DHT22;7731;50.720;6.912;2022-09-11T03:48:17;16.50;99.90
15257;DHT22;7731;50.720;6.912;2022-09-11T03:50:50;16.50;99.90
15257;DHT22;7731;50.720;6.912;2022-09-11T03:53:21;16.60;99.90
15257;DHT22;7731;50.720;6.912;2022-09-11T03:55:53;16.70;99.90
15257;DHT22;7731;50.720;6.912;2022-09-11T03:58:24;16.60;99.90
15257;DHT22;7731;50.720;6.912;2022-09-11T04:00:54;16.60;99.90
15257;DHT22;7731;50.720;6.912;2022-09-11T04:03:25;16.50;99.90
15257;DHT22;7731;50.720;6.912;2022-09-11T04:06:03;16.50;99.90
15257;DHT22;7731;50.720;6.912;2022-09-11T04:08:34;16.40;99.90
15257;DHT22;7731;50.720;6.912;2022-09-11T04:11:05;16.50;99.90
15257;DHT22;7731;50.720;6.912;2022-09-11T04:13:36;16.50;99.90
15257;DHT22;7731;50.720;6.912;2022-09-11T04:16:11;16.50;99.90
15257;DHT22;7731;50.720;6.912;2022-09-11T04:18:43;16.50;99.90
15257;DHT22;7731;50.720;6.912;2022-09-11T04:21:17;16.50;99.90
15257;DHT22;7731;50.720;6.912;2022-09-11T04:23:51;16.60;99.90
15257;DHT22;7731;50.720;6.912;2022-09-11T04:26:25;16.70;99.90
15257;DHT22;7731;50.720;6.912;2022-09-11T04:28:57;16.60;99.90
15257;DHT22;7731;50.720;6.912;2022-09-11T04:31:28;16.50;99.90
15257;DHT22;7731;50.720;6.912;2022-09-11T04:33:58;16.50;99.90
15257;DHT22;7731;50.720;6.912;2022-09-11T04:36:33;16.50;99.90
15257;DHT22;7731;50.720;6.912;2022-09-11T04:39:04;16.50;99.90
15257;DHT22;7731;50.720;6.912;2022-09-11T04:41:37;16.50;99.90
15257;DHT22;7731;50.720;6.912;2022-09-11T04:44:12;16.50;99.90
15257;DHT22;7731;50.720;6.912;2022-09-11T04:46:42;16.40;99.90
15257;DHT22;7731;50.720;6.912;2022-09-11T04:49:13;16.40;99.90
15257;DHT22;7731;50.720;6.912;2022-09-11T04:51:47;16.30;99.90
15257;DHT22;7731;50.720;6.912;2022-09-11T04:54:18;16.40;99.90
15257;DHT22;7731;50.720;6.912;2022-09-11T04:56:49;16.30;99.90
15257;DHT22;7731;50.720;6.912;2022-09-11T04:59:21;16.30;99.90
15257;DHT22;7731;50.720;6.912;2022-09-11T05:01:52;16.40;99.90
15257;DHT22;7731;50.720;6.912;2022-09-11T05:04:23;16.30;99.90
15257;DHT22;7731;50.720;6.912;2022-09-11T05:06:55;16.20;99.90
15257;DHT22;7731;50.720;6.912;2022-09-11T05:09:26;16.20;99.90
15257;DHT22;7731;50.720;6.912;2022-09-11T05:11:56;16.20;99.90
15257;DHT22;7731;50.720;6.912;2022-09-11T05:14:28;16.20;99.90
15257;DHT22;7731;50.720;6.912;2022-09-11T05:16:58;16.30;99.90
15257;DHT22;7731;50.720;6.912;2022-09-11T05:19:29;16.40;99.90
15257;DHT22;7731;50.720;6.912;2022-09-11T05:22:01;16.40;99.90
15257;DHT22;7731;50.720;6.912;2022-09-11T05:24:32;16.50;99.90
15257;DHT22;7731;50.720;6.912;2022-09-11T05:27:02;16.50;99.90
15257;DHT22;7731;50.720;6.912;2022-09-11T05:29:33;16.50;99.90
15257;DHT22;7731;50.720;6.912;2022-09-11T05:32:05;16.40;99.90
15257;DHT22;7731;50.720;6.912;2022-09-11T05:34:35;16.40;99.90
15257;DHT22;7731;50.720;6.912;2022-09-11T05:37:08;16.40;99.90
15257;DHT22;7731;50.720;6.912;2022-09-11T05:39:38;16.40;99.90
15257;DHT22;7731;50.720;6.912;2022-09-11T05:42:09;16.50;99.90
15257;DHT22;7731;50.720;6.912;2022-09-11T05:44:39;16.40;99.90
15257;DHT22;7731;50.720;6.912;2022-09-11T05:47:09;16.40;99.90
15257;DHT22;7731;50.720;6.912;2022-09-11T05:49:40;16.40;99.90
15257;DHT22;7731;50.720;6.912;2022-09-11T05:52:12;16.60;99.90
15257;DHT22;7731;50.720;6.912;2022-09-11T05:54:42;16.70;99.90
15257;DHT22;7731;50.720;6.912;2022-09-11T05:57:13;16.70;99.90
15257;DHT22;7731;50.720;6.912;2022-09-11T05:59:43;16.60;99.90
15257;DHT22;7731;50.720;6.912;2022-09-11T06:02:16;16.60;99.90
15257;DHT22;7731;50.720;6.912;2022-09-11T06:04:46;16.60;99.90
15257;DHT22;7731;50.720;6.912;2022-09-11T06:07:19;16.60;99.90
15257;DHT22;7731;50.720;6.912;2022-09-11T06:09:49;16.60;99.90
15257;DHT22;7731;50.720;6.912;2022-09-11T06:12:19;16.60;99.90
15257;DHT22;7731;50.720;6.912;2022-09-11T06:14:49;16.60;99.90
15257;DHT22;7731;50.720;6.912;2022-09-11T06:17:19;16.60;99.90
15257;DHT22;7731;50.720;6.912;2022-09-11T06:19:50;16.70;99.90
15257;DHT22;7731;50.720;6.912;2022-09-11T06:22:22;16.70;99.90
15257;DHT22;7731;50.720;6.912;2022-09-11T06:24:59;16.90;99.90
15257;DHT22;7731;50.720;6.912;2022-09-11T06:27:29;16.90;99.90
15257;DHT22;7731;50.720;6.912;2022-09-11T06:29:59;16.90;99.90
15257;DHT22;7731;50.720;6.912;2022-09-11T06:32:32;17.10;99.90
15257;DHT22;7731;50.720;6.912;2022-09-11T06:35:02;17.10;99.90
15257;DHT22;7731;50.720;6.912;2022-09-11T06:37:40;17.10;99.90
15257;DHT22;7731;50.720;6.912;2022-09-11T06:40:11;17.00;99.90
15257;DHT22;7731;50.720;6.912;2022-09-11T06:42:46;17.10;99.90
15257;DHT22;7731;50.720;6.912;2022-09-11T06:45:20;17.20;99.90
15257;DHT22;7731;50.720;6.912;2022-09-11T06:47:53;17.10;99.90
15257;DHT22;7731;50.720;6.912;2022-09-11T06:50:23;17.00;99.90
15257;DHT22;7731;50.720;6.912;2022-09-11T06:53:03;17.00;99.90
15257;DHT22;7731;50.720;6.912;2022-09-11T06:55:33;17.00;99.90
15257;DHT22;7731;50.720;6.912;2022-09-11T06:58:03;16.90;99.90
15257;DHT22;7731;50.720;6.912;2022-09-11T07:00:34;17.00;99.90
15257;DHT22;7731;50.720;6.912;2022-09-11T07:03:07;17.00;99.90
15257;DHT22;7731;50.720;6.912;2022-09-11T07:05:43;17.00;99.90
15257;DHT22;7731;50.720;6.912;2022-09-11T07:08:19;17.00;99.90
15257;DHT22;7731;50.720;6.912;2022-09-11T07:10:51;17.00;99.90
15257;DHT22;7731;50.720;6.912;2022-09-11T07:13:21;17.10;99.90
15257;DHT22;7731;50.720;6.912;2022-09-11T07:15:59;17.20;99.90
15257;DHT22;7731;50.720;6.912;2022-09-11T07:18:39;17.00;99.90
15257;DHT22;7731;50.720;6.912;2022-09-11T07:21:13;16.90;99.90
15257;DHT22;7731;50.720;6.912;2022-09-11T07:23:51;16.90;99.90
15257;DHT22;7731;50.720;6.912;2022-09-11T07:26:24;16.90;99.90
15257;DHT22;7731;50.720;6.912;2022-09-11T07:28:57;17.00;99.90
15257;DHT22;7731;50.720;6.912;2022-09-11T07:31:29;17.10;99.90
15257;DHT22;7731;50.720;6.912;2022-09-11T07:34:01;17.00;99.90
15257;DHT22;7731;50.720;6.912;2022-09-11T07:36:33;17.00;99.90
15257;DHT22;7731;50.720;6.912;2022-09-11T07:39:06;17.10;99.90
15257;DHT22;7731;50.720;6.912;2022-09-11T07:41:39;17.10;99.90
15257;DHT22;7731;50.720;6.912;2022-09-11T07:44:12;17.00;99.90
15257;DHT22;7731;50.720;6.912;2022-09-11T07:46:47;17.00;99.90
15257;DHT22;7731;50.720;6.912;2022-09-11T07:49:18;16.90;99.90
15257;DHT22;7731;50.720;6.912;2022-09-11T07:51:48;16.80;99.90
15257;DHT22;7731;50.720;6.912;2022-09-11T07:54:21;16.70;99.90
15257;DHT22;7731;50.720;6.912;2022-09-11T07:56:57;16.70;99.90
15257;DHT22;7731;50.720;6.912;2022-09-11T07:59:30;17.00;99.90
15257;DHT22;7731;50.720;6.912;2022-09-11T08:02:03;17.30;99.90
15257;DHT22;7731;50.720;6.912;2022-09-11T08:04:34;17.50;99.90
15257;DHT22;7731;50.720;6.912;2022-09-11T08:07:06;17.70;99.90
15257;DHT22;7731;50.720;6.912;2022-09-11T08:09:39;17.60;99.90
15257;DHT22;7731;50.720;6.912;2022-09-11T08:12:09;17.60;99.90
15257;DHT22;7731;50.720;6.912;2022-09-11T08:14:39;17.60;99.90
15257;DHT22;7731;50.720;6.912;2022-09-11T08:17:15;17.80;99.90
15257;DHT22;7731;50.720;6.912;2022-09-11T08:19:45;18.30;99.90
15257;DHT22;7731;50.720;6.912;2022-09-11T08:22:19;18.60;99.90
15257;DHT22;7731;50.720;6.912;2022-09-11T08:24:54;18.80;99.90
15257;DHT22;7731;50.720;6.912;2022-09-11T08:27:24;19.10;99.90
15257;DHT22;7731;50.720;6.912;2022-09-11T08:29:54;19.50;99.90
15257;DHT22;7731;50.720;6.912;2022-09-11T08:32:30;20.00;99.90
15257;DHT22;7731;50.720;6.912;2022-09-11T08:35:03;20.50;99.90
15257;DHT22;7731;50.720;6.912;2022-09-11T08:37:33;21.10;99.90
15257;DHT22;7731;50.720;6.912;2022-09-11T08:40:07;21.20;99.90
15257;DHT22;7731;50.720;6.912;2022-09-11T08:42:46;21.20;99.90
15257;DHT22;7731;50.720;6.912;2022-09-11T08:45:21;21.20;99.90
15257;DHT22;7731;50.720;6.912;2022-09-11T08:47:57;20.40;99.90
15257;DHT22;7731;50.720;6.912;2022-09-11T08:50:31;20.40;99.90
15257;DHT22;7731;50.720;6.912;2022-09-11T08:53:08;20.70;99.90
15257;DHT22;7731;50.720;6.912;2022-09-11T08:55:49;20.90;99.90
15257;DHT22;7731;50.720;6.912;2022-09-11T08:58:32;20.60;99.90
15257;DHT22;7731;50.720;6.912;2022-09-11T09:01:21;20.40;99.90
15257;DHT22;7731;50.720;6.912;2022-09-11T09:04:09;20.80;99.90
15257;DHT22;7731;50.720;6.912;2022-09-11T09:07:00;21.40;99.90
15257;DHT22;7731;50.720;6.912;2022-09-11T09:09:46;21.50;99.90
15257;DHT22;7731;50.720;6.912;2022-09-11T09:12:33;21.20;99.90
15257;DHT22;7731;50.720;6.912;2022-09-11T09:15:29;21.00;99.90
15257;DHT22;7731;50.720;6.912;2022-09-11T09:18:12;21.10;99.90
15257;DHT22;7731;50.720;6.912;2022-09-11T09:20:58;20.90;99.90
15257;DHT22;7731;50.720;6.912;2022-09-11T09:23:40;21.00;99.90
15257;DHT22;7731;50.720;6.912;2022-09-11T09:26:17;20.90;99.90
15257;DHT22;7731;50.720;6.912;2022-09-11T09:28:56;20.80;99.90
15257;DHT22;7731;50.720;6.912;2022-09-11T09:31:37;20.50;99.90
15257;DHT22;7731;50.720;6.912;2022-09-11T09:34:15;20.40;99.90
15257;DHT22;7731;50.720;6.912;2022-09-11T09:37:01;20.40;99.90
15257;DHT22;7731;50.720;6.912;2022-09-11T09:39:43;20.30;99.90
15257;DHT22;7731;50.720;6.912;2022-09-11T09:42:32;20.60;99.90
15257;DHT22;7731;50.720;6.912;2022-09-11T09:45:40;20.80;99.90
15257;DHT22;7731;50.720;6.912;2022-09-11T09:48:20;20.90;99.90
15257;DHT22;7731;50.720;6.912;2022-09-11T09:50:51;21.30;99.90
15257;DHT22;7731;50.720;6.912;2022-09-11T09:53:28;21.40;99.90
15257;DHT22;7731;50.720;6.912;2022-09-11T09:56:10;21.60;99.90
15257;DHT22;7731;50.720;6.912;2022-09-11T09:58:51;21.70;99.90
15257;DHT22;7731;50.720;6.912;2022-09-11T10:01:49;21.70;99.90
15257;DHT22;7731;50.720;6.912;2022-09-11T10:04:22;21.90;99.70
15257;DHT22;7731;50.720;6.912;2022-09-11T10:07:05;22.00;99.90
15257;DHT22;7731;50.720;6.912;2022-09-11T10:09:45;22.10;99.90
15257;DHT22;7731;50.720;6.912;2022-09-11T10:12:19;21.90;99.90
15257;DHT22;7731;50.720;6.912;2022-09-11T10:14:54;22.10;99.90
15257;DHT22;7731;50.720;6.912;2022-09-11T10:17:33;21.90;99.90
15257;DHT22;7731;50.720;6.912;2022-09-11T10:20:19;22.20;99.90
15257;DHT22;7731;50.720;6.912;2022-09-11T10:22:54;22.70;99.90
15257;DHT22;7731;50.720;6.912;2022-09-11T10:25:25;23.10;91.70
15257;DHT22;7731;50.720;6.912;2022-09-11T10:28:02;23.00;83.20
15257;DHT22;7731;50.720;6.912;2022-09-11T10:30:40;23.20;73.90
15257;DHT22;7731;50.720;6.912;2022-09-11T10:33:25;23.20;59.10
15257;DHT22;7731;50.720;6.912;2022-09-11T10:35:59;23.80;50.30
15257;DHT22;7731;50.720;6.912;2022-09-11T10:38:34;24.20;15.50
15257;DHT22;7731;50.720;6.912;2022-09-11T10:41:16;24.90;1.00
15257;DHT22;7731;50.720;6.912;2022-09-11T10:43:52;25.40;1.00
15257;DHT22;7731;50.720;6.912;2022-09-11T10:46:32;25.40;1.00
15257;DHT22;7731;50.720;6.912;2022-09-11T10:49:16;25.90;1.00
15257;DHT22;7731;50.720;6.912;2022-09-11T10:51:59;26.30;1.00
15257;DHT22;7731;50.720;6.912;2022-09-11T10:54:45;26.80;1.00
15257;DHT22;7731;50.720;6.912;2022-09-11T10:57:28;28.50;1.00
15257;DHT22;7731;50.720;6.912;2022-09-11T11:00:04;28.50;99.90
15257;DHT22;7731;50.720;6.912;2022-09-11T11:02:46;27.90;81.70
15257;DHT22;7731;50.720;6.912;2022-09-11T11:05:29;26.50;1.00
15257;DHT22;7731;50.720;6.912;2022-09-11T11:08:21;25.70;1.00
15257;DHT22;7731;50.720;6.912;2022-09-11T11:11:20;25.10;1.00
15257;DHT22;7731;50.720;6.912;2022-09-11T11:14:19;25.10;1.00
15257;DHT22;7731;50.720;6.912;2022-09-11T11:17:09;26.00;1.00
15257;DHT22;7731;50.720;6.912;2022-09-11T11:20:12;26.50;1.00
15257;DHT22;7731;50.720;6.912;2022-09-11T11:23:20;27.20;99.90
15257;DHT22;7731;50.720;6.912;2022-09-11T11:26:27;27.00;1.00
15257;DHT22;7731;50.720;6.912;2022-09-11T11:29:30;27.70;1.00
15257;DHT22;7731;50.720;6.912;2022-09-11T11:32:19;27.20;99.90
15257;DHT22;7731;50.720;6.912;2022-09-11T11:35:11;25.30;1.00
15257;DHT22;7731;50.720;6.912;2022-09-11T11:37:58;24.70;1.00
15257;DHT22;7731;50.720;6.912;2022-09-11T11:40:38;25.20;1.00
15257;DHT22;7731;50.720;6.912;2022-09-11T11:43:14;25.80;1.00
15257;DHT22;7731;50.720;6.912;2022-09-11T11:45:53;25.60;1.00
15257;DHT22;7731;50.720;6.912;2022-09-11T11:48:37;25.90;1.00
15257;DHT22;7731;50.720;6.912;2022-09-11T11:51:17;25.60;1.00
15257;DHT22;7731;50.720;6.912;2022-09-11T11:53:57;24.60;1.00
15257;DHT22;7731;50.720;6.912;2022-09-11T11:56:40;24.60;1.00
15257;DHT22;7731;50.720;6.912;2022-09-11T11:59:21;25.40;1.00
15257;DHT22;7731;50.720;6.912;2022-09-11T12:02:01;24.50;1.00
15257;DHT22;7731;50.720;6.912;2022-09-11T12:04:49;24.70;1.00
15257;DHT22;7731;50.720;6.912;2022-09-11T12:07:27;25.20;1.00
15257;DHT22;7731;50.720;6.912;2022-09-11T12:10:00;25.40;1.00
15257;DHT22;7731;50.720;6.912;2022-09-11T12:12:41;25.30;1.00
15257;DHT22;7731;50.720;6.912;2022-09-11T12:15:17;25.40;1.00
15257;DHT22;7731;50.720;6.912;2022-09-11T12:17:59;24.90;1.00
15257;DHT22;7731;50.720;6.912;2022-09-11T12:20:41;24.50;1.00
15257;DHT22;7731;50.720;6.912;2022-09-11T12:23:33;24.30;1.00
15257;DHT22;7731;50.720;6.912;2022-09-11T12:26:29;24.60;1.00
15257;DHT22;7731;50.720;6.912;2022-09-11T12:32:40;25.10;1.00
15257;DHT22;7731;50.720;6.912;2022-09-11T12:35:33;24.90;1.00
15257;DHT22;7731;50.720;6.912;2022-09-11T12:38:21;24.80;1.00
15257;DHT22;7731;50.720;6.912;2022-09-11T12:40:56;24.70;1.00
15257;DHT22;7731;50.720;6.912;2022-09-11T12:43:45;24.40;1.00
15257;DHT22;7731;50.720;6.912;2022-09-11T12:49:54;24.40;1.00
15257;DHT22;7731;50.720;6.912;2022-09-11T12:52:33;24.40;1.00
15257;DHT22;7731;50.720;6.912;2022-09-11T12:55:27;24.40;1.00
15257;DHT22;7731;50.720;6.912;2022-09-11T12:58:02;23.90;1.00
15257;DHT22;7731;50.720;6.912;2022-09-11T13:00:39;23.80;1.00
15257;DHT22;7731;50.720;6.912;2022-09-11T13:03:17;23.90;1.00
15257;DHT22;7731;50.720;6.912;2022-09-11T13:06:04;24.10;1.00
15257;DHT22;7731;50.720;6.912;2022-09-11T13:08:45;24.40;1.00
15257;DHT22;7731;50.720;6.912;2022-09-11T13:11:35;24.60;1.00
15257;DHT22;7731;50.720;6.912;2022-09-11T13:17:28;24.70;1.00
15257;DHT22;7731;50.720;6.912;2022-09-11T13:20:18;24.80;1.00
15257;DHT22;7731;50.720;6.912;2022-09-11T13:23:14;24.50;1.00
15257;DHT22;7731;50.720;6.912;2022-09-11T13:25:49;24.50;99.90
15257;DHT22;7731;50.720;6.912;2022-09-11T13:28:20;24.40;1.00
15257;DHT22;7731;50.720;6.912;2022-09-11T13:31:00;24.40;99.90
15257;DHT22;7731;50.720;6.912;2022-09-11T13:33:31;24.20;1.00
15257;DHT22;7731;50.720;6.912;2022-09-11T13:36:02;24.10;1.00
15257;DHT22;7731;50.720;6.912;2022-09-11T13:38:36;23.80;1.00
15257;DHT22;7731;50.720;6.912;2022-09-11T13:41:12;23.70;1.00
15257;DHT22;7731;50.720;6.912;2022-09-11T13:43:55;24.10;1.00
15257;DHT22;7731;50.720;6.912;2022-09-11T13:46:29;24.40;75.50
15257;DHT22;7731;50.720;6.912;2022-09-11T13:49:25;24.50;99.90
15257;DHT22;7731;50.720;6.912;2022-09-11T13:52:03;24.40;1.00
15257;DHT22;7731;50.720;6.912;2022-09-11T13:54:41;24.40;79.80
15257;DHT22;7731;50.720;6.912;2022-09-11T13:57:19;24.70;1.00
15257;DHT22;7731;50.720;6.912;2022-09-11T13:59:51;24.80;92.50
15257;DHT22;7731;50.720;6.912;2022-09-11T14:02:45;24.70;1.00
15257;DHT22;7731;50.720;6.912;2022-09-11T14:05:20;24.60;1.00
15257;DHT22;7731;50.720;6.912;2022-09-11T14:08:02;24.80;99.90
15257;DHT22;7731;50.720;6.912;2022-09-11T14:10:43;25.10;99.90
15257;DHT22;7731;50.720;6.912;2022-09-11T14:13:18;25.00;99.90
15257;DHT22;7731;50.720;6.912;2022-09-11T14:15:55;25.10;1.00
15257;DHT22;7731;50.720;6.912;2022-09-11T14:18:33;25.10;1.00
15257;DHT22;7731;50.720;6.912;2022-09-11T14:21:12;25.00;1.00
15257;DHT22;7731;50.720;6.912;2022-09-11T14:23:45;25.10;1.00
15257;DHT22;7731;50.720;6.912;2022-09-11T14:26:23;25.00;99.90
15257;DHT22;7731;50.720;6.912;2022-09-11T14:29:21;25.00;1.00
15257;DHT22;7731;50.720;6.912;2022-09-11T14:32:20;25.20;1.00
15257;DHT22;7731;50.720;6.912;2022-09-11T14:35:04;25.00;1.00
15257;DHT22;7731;50.720;6.912;2022-09-11T14:37:40;24.90;59.10
15257;DHT22;7731;50.720;6.912;2022-09-11T14:40:22;24.80;99.90
15257;DHT22;7731;50.720;6.912;2022-09-11T14:42:52;24.80;1.00
15257;DHT22;7731;50.720;6.912;2022-09-11T14:45:26;24.70;99.90
15257;DHT22;7731;50.720;6.912;2022-09-11T14:47:58;24.20;99.90
15257;DHT22;7731;50.720;6.912;2022-09-11T14:50:33;24.20;99.90
15257;DHT22;7731;50.720;6.912;2022-09-11T14:53:03;24.10;99.90
15257;DHT22;7731;50.720;6.912;2022-09-11T14:55:34;24.20;1.00
15257;DHT22;7731;50.720;6.912;2022-09-11T14:58:10;24.30;1.00
15257;DHT22;7731;50.720;6.912;2022-09-11T15:00:41;24.00;1.00
15257;DHT22;7731;50.720;6.912;2022-09-11T15:03:11;23.90;1.00
15257;DHT22;7731;50.720;6.912;2022-09-11T15:05:49;23.80;1.00
15257;DHT22;7731;50.720;6.912;2022-09-11T15:08:23;23.60;1.00
15257;DHT22;7731;50.720;6.912;2022-09-11T15:10:54;23.50;1.00
15257;DHT22;7731;50.720;6.912;2022-09-11T15:13:24;23.50;1.00
15257;DHT22;7731;50.720;6.912;2022-09-11T15:15:56;23.40;1.00
15257;DHT22;7731;50.720;6.912;2022-09-11T15:18:27;23.50;1.00
15257;DHT22;7731;50.720;6.912;2022-09-11T15:20:59;23.40;1.00
15257;DHT22;7731;50.720;6.912;2022-09-11T15:23:30;23.40;1.00
15257;DHT22;7731;50.720;6.912;2022-09-11T15:26:03;23.30;1.00
15257;DHT22;7731;50.720;6.912;2022-09-11T15:28:40;23.20;1.00
15257;DHT22;7731;50.720;6.912;2022-09-11T15:31:10;23.20;1.00
15257;DHT22;7731;50.720;6.912;2022-09-11T15:33:41;23.20;1.00
15257;DHT22;7731;50.720;6.912;2022-09-11T15:36:16;23.40;1.00
15257;DHT22;7731;50.720;6.912;2022-09-11T15:38:50;23.30;1.00
15257;DHT22;7731;50.720;6.912;2022-09-11T15:41:21;23.40;1.00
15257;DHT22;7731;50.720;6.912;2022-09-11T15:43:53;23.40;1.00
15257;DHT22;7731;50.720;6.912;2022-09-11T15:46:23;23.40;1.00
15257;DHT22;7731;50.720;6.912;2022-09-11T15:48:57;23.30;1.00
15257;DHT22;7731;50.720;6.912;2022-09-11T15:51:30;23.20;1.00
15257;DHT22;7731;50.720;6.912;2022-09-11T15:54:01;23.10;1.00
15257;DHT22;7731;50.720;6.912;2022-09-11T15:56:31;23.10;1.00
15257;DHT22;7731;50.720;6.912;2022-09-11T15:59:02;23.10;1.00
15257;DHT22;7731;50.720;6.912;2022-09-11T16:01:33;23.10;1.00
15257;DHT22;7731;50.720;6.912;2022-09-11T16:04:06;23.00;1.00
15257;DHT22;7731;50.720;6.912;2022-09-11T16:06:41;22.90;1.00
15257;DHT22;7731;50.720;6.912;2022-09-11T16:09:15;22.80;1.00
15257;DHT22;7731;50.720;6.912;2022-09-11T16:11:54;22.80;1.00
15257;DHT22;7731;50.720;6.912;2022-09-11T16:14:29;22.80;1.00
15257;DHT22;7731;50.720;6.912;2022-09-11T16:17:05;22.90;1.00
15257;DHT22;7731;50.720;6.912;2022-09-11T16:19:39;22.80;1.00
15257;DHT22;7731;50.720;6.912;2022-09-11T16:22:12;22.60;1.00
15257;DHT22;7731;50.720;6.912;2022-09-11T16:24:42;22.60;1.00
15257;DHT22;7731;50.720;6.912;2022-09-11T16:27:15;22.50;1.00
15257;DHT22;7731;50.720;6.912;2022-09-11T16:29:45;22.50;1.00
15257;DHT22;7731;50.720;6.912;2022-09-11T16:32:35;22.40;1.00
15257;DHT22;7731;50.720;6.912;2022-09-11T16:35:09;22.30;1.00
15257;DHT22;7731;50.720;6.912;2022-09-11T16:37:47;22.30;1.00
15257;DHT22;7731;50.720;6.912;2022-09-11T16:40:20;22.20;1.00
15257;DHT22;7731;50.720;6.912;2022-09-11T16:42:50;22.10;1.00
15257;DHT22;7731;50.720;6.912;2022-09-11T16:45:24;22.00;1.00
15257;DHT22;7731;50.720;6.912;2022-09-11T16:47:57;22.00;1.00
15257;DHT22;7731;50.720;6.912;2022-09-11T16:50:30;21.90;1.00
15257;DHT22;7731;50.720;6.912;2022-09-11T16:53:03;21.90;1.00
15257;DHT22;7731;50.720;6.912;2022-09-11T16:55:33;21.90;1.00
15257;DHT22;7731;50.720;6.912;2022-09-11T16:58:09;21.90;1.00
15257;DHT22;7731;50.720;6.912;2022-09-11T17:00:42;21.90;1.00
15257;DHT22;7731;50.720;6.912;2022-09-11T17:03:16;21.80;1.00
15257;DHT22;7731;50.720;6.912;2022-09-11T17:05:49;21.80;1.00